Detroit, Michigan
Traffic Map
Current Weather Conditions
Detroit, Michigan
Clear
Clear
23°
Feels Like: 23°
Wind Chill: 23° Ceiling: Unl
Heat Index: 23° Visibility: 15mi
Dew Point: 18° Wind: 6mph
Humidity: 73% Direction: 200° (SSW)
Pressure: 30.09in Gusts: 0mph
Raw Report DataCYQG 201400Z 20005KT 15SM SKC 23/18 A3009 RMK SLP190 DENSITY ALT 1600FT
Traffic Incident Summary
Active as of:
Severity:
Category:
InformationThere was an issue retrieving the traffic information for this location. Please try a different location or try again shortly.
Advertisements